Time;durP1;ratioP1;P1;durP2;ratioP2;P2;SDS_P1;SDS_P2;PMS_P1;PMS_P2;Temp;Humidity;BMP_temperature;BMP_pressure;BME280_temperature;BME280_humidity;BME280_pressure;Samples;Min_cycle;Max_cycle;Signal;HPM_P1;HPM_P2
2023/06/07 00:01:12;;;;;;;2.72;1.50;;;;;;;19.37;74.68;100831.31;5016840;28;20074;-78
2023/06/07 00:03:57;;;;;;;3.72;1.95;;;;;;;19.52;73.18;100832.34;5017371;28;20551;-78
2023/06/07 00:06:43;;;;;;;1.80;1.50;;;;;;;19.53;71.15;100828.44;5016145;28;20049;-78
2023/06/07 00:09:30;;;;;;;4.00;1.50;;;;;;;19.53;71.84;100826.47;5013242;28;20056;-77
2023/06/07 00:12:14;;;;;;;8.20;1.48;;;;;;;19.51;71.85;100817.75;5014016;28;20053;-77
2023/06/07 00:15:00;;;;;;;4.55;1.55;;;;;;;19.37;71.29;100820.28;4994038;28;20069;-77
2023/06/07 00:17:45;;;;;;;2.72;1.60;;;;;;;19.28;71.11;100825.28;4994801;28;20062;-77
2023/06/07 00:20:30;;;;;;;3.20;1.45;;;;;;;19.46;70.34;100817.28;4994030;28;20053;-77
2023/06/07 00:23:16;;;;;;;5.85;2.03;;;;;;;19.36;71.21;100831.69;4997523;28;20050;-79
2023/06/07 00:26:00;;;;;;;6.63;1.42;;;;;;;19.30;71.89;100836.72;5018729;28;20049;-79
2023/06/07 00:28:45;;;;;;;1.25;1.00;;;;;;;19.58;74.52;100831.66;5001273;28;20045;-79
2023/06/07 00:31:30;;;;;;;4.90;1.95;;;;;;;19.62;73.23;100838.00;4987066;28;20054;-79
2023/06/07 00:34:16;;;;;;;2.83;1.33;;;;;;;19.96;72.57;100836.09;5001063;28;20091;-79
2023/06/07 00:37:00;;;;;;;3.75;2.13;;;;;;;20.12;69.93;100838.66;4993578;28;20504;-77
2023/06/07 00:39:46;;;;;;;1.88;0.93;;;;;;;20.18;71.73;100837.16;4996749;28;20053;-78
2023/06/07 00:42:34;;;;;;;2.33;0.75;;;;;;;20.35;70.90;100838.56;4995171;28;20053;-78
2023/06/07 00:45:19;;;;;;;6.15;1.92;;;;;;;19.91;68.22;100832.88;5000107;28;20069;-79
2023/06/07 00:48:04;;;;;;;3.53;1.17;;;;;;;19.64;68.42;100832.13;4999525;28;20054;-79
2023/06/07 00:50:49;;;;;;;7.13;2.42;;;;;;;19.48;69.42;100837.03;4998603;28;20114;-79
2023/06/07 00:53:35;;;;;;;5.75;1.88;;;;;;;19.17;70.79;100827.88;5014508;28;20061;-79
2023/06/07 00:56:20;;;;;;;2.67;1.75;;;;;;;19.19;71.77;100825.56;5012447;28;20045;-79
2023/06/07 00:59:05;;;;;;;1.80;1.55;;;;;;;19.06;72.13;100823.34;4998973;28;20053;-79
2023/06/07 01:01:55;;;;;;;2.97;1.70;;;;;;;18.98;72.85;100830.72;5001527;28;20089;-79
2023/06/07 01:04:42;;;;;;;2.33;1.80;;;;;;;18.93;73.28;100819.22;5000044;28;20050;-79
2023/06/07 01:07:27;;;;;;;4.47;2.20;;;;;;;18.93;73.36;100827.47;4999814;28;20048;-80
2023/06/07 01:10:12;;;;;;;3.00;2.00;;;;;;;18.90;73.40;100817.97;4998706;28;20053;-79
2023/06/07 01:12:58;;;;;;;3.22;1.98;;;;;;;18.91;73.66;100818.78;4999141;28;20416;-78
2023/06/07 01:15:43;;;;;;;2.60;1.75;;;;;;;19.06;73.11;100826.09;4997859;28;20065;-79
2023/06/07 01:18:29;;;;;;;4.70;2.10;;;;;;;19.03;73.42;100833.16;4998254;28;20425;-79
2023/06/07 01:21:18;;;;;;;;;;;;;;;19.31;75.14;100835.56;4998047;28;20057;-79
2023/06/07 01:24:03;;;;;;;2.50;1.65;;;;;;;19.58;73.35;100831.66;5011293;28;19914;-79
2023/06/07 01:26:53;;;;;;;2.00;1.50;;;;;;;19.66;72.77;100838.06;5000853;28;20049;-79
2023/06/07 01:29:39;;;;;;;3.92;1.95;;;;;;;19.52;71.96;100841.41;4998892;28;20041;-79
2023/06/07 01:32:25;;;;;;;10.35;1.70;;;;;;;19.45;72.24;100840.53;5011119;28;20062;-79
2023/06/07 01:35:11;;;;;;;15.98;3.00;;;;;;;19.38;71.88;100835.66;4997776;28;20405;-79
2023/06/07 01:37:57;;;;;;;7.47;1.80;;;;;;;19.34;72.43;100832.06;5010537;28;20126;-79
2023/06/07 01:40:44;;;;;;;6.43;2.03;;;;;;;19.36;72.35;100823.41;5009629;28;20117;-79
2023/06/07 01:43:30;;;;;;;3.00;1.70;;;;;;;19.12;73.15;100817.16;5012324;28;20045;-78
2023/06/07 01:46:15;;;;;;;3.35;1.60;;;;;;;19.24;73.00;100810.66;4993890;28;20057;-78
2023/06/07 01:49:03;;;;;;;3.25;1.67;;;;;;;19.21;73.15;100814.94;5027988;22;20529;-76
2023/06/07 01:51:48;;;;;;;5.32;2.20;;;;;;;19.24;71.78;100802.38;4979059;28;20418;-77
2023/06/07 01:54:33;;;;;;;1.63;1.30;;;;;;;19.48;75.50;100803.94;4981434;28;20053;-77
2023/06/07 01:57:43;;;;;;;2.78;1.48;;;;;;;19.69;72.37;100808.94;4978876;28;20126;-76
2023/06/07 02:00:35;;;;;;;7.25;2.00;;;;;;;19.67;70.80;100808.50;4959097;28;20066;-76
2023/06/07 02:03:39;;;;;;;5.35;2.08;;;;;;;19.75;71.88;100813.75;4959997;28;20050;-76
2023/06/07 02:06:30;;;;;;;3.40;2.05;;;;;;;19.46;70.78;100801.53;4959793;29;20047;-77
2023/06/07 02:09:16;;;;;;;4.57;1.67;;;;;;;19.31;71.41;100805.22;4959162;28;20453;-76
2023/06/07 02:12:02;;;;;;;5.47;2.35;;;;;;;19.16;71.92;100814.44;4972216;28;20513;-76
2023/06/07 02:14:52;;;;;;;3.20;1.95;;;;;;;19.17;71.92;100810.53;4982970;28;20066;-76
2023/06/07 02:17:58;;;;;;;4.57;2.03;;;;;;;19.04;72.52;100803.66;4977967;28;20049;-76
2023/06/07 02:20:43;;;;;;;5.53;2.28;;;;;;;19.12;71.87;100803.38;4979134;28;20084;-76
2023/06/07 02:23:28;;;;;;;3.00;1.70;;;;;;;19.05;72.04;100813.47;4981967;28;20058;-76
2023/06/07 02:26:13;;;;;;;7.45;2.08;;;;;;;19.13;72.41;100809.69;4966280;28;20413;-76
2023/06/07 02:28:59;;;;;;;3.95;1.85;;;;;;;18.99;72.17;100810.28;4978978;28;20050;-77
2023/06/07 02:31:46;;;;;;;3.53;1.55;;;;;;;18.99;73.04;100813.03;4979128;28;20066;-76
2023/06/07 02:34:32;;;;;;;6.63;1.52;;;;;;;19.23;73.72;100820.09;4980205;28;20050;-76
2023/06/07 02:37:17;;;;;;;2.78;1.55;;;;;;;19.76;73.67;100825.59;4978553;28;20062;-76
2023/06/07 02:40:05;;;;;;;2.13;0.98;;;;;;;20.08;71.66;100824.81;4979059;28;20512;-76
2023/06/07 02:42:50;;;;;;;4.03;1.60;;;;;;;19.99;70.32;100829.03;4979244;28;20046;-76
2023/06/07 02:45:35;;;;;;;1.38;0.95;;;;;;;20.06;70.97;100834.66;4978251;28;20343;-76
2023/06/07 02:48:20;;;;;;;2.08;1.55;;;;;;;20.33;70.47;100838.91;4980013;28;20406;-76
2023/06/07 02:51:05;;;;;;;2.83;1.40;;;;;;;20.43;70.03;100841.00;4980077;28;20049;-77
2023/06/07 02:53:49;;;;;;;2.45;1.08;;;;;;;20.73;68.45;100846.44;4978212;28;20046;-77
2023/06/07 02:56:39;;;;;;;2.58;1.23;;;;;;;20.88;67.91;100839.06;4976154;28;20050;-77
2023/06/07 02:59:24;;;;;;;;;;;;;;;20.79;67.14;100844.13;4975128;28;20070;-76
2023/06/07 03:02:10;;;;;;;3.83;1.30;;;;;;;20.45;68.06;100838.66;4958985;28;19914;-76
2023/06/07 03:04:57;;;;;;;8.00;1.77;;;;;;;20.06;68.35;100840.94;4971287;28;20053;-76
2023/06/07 03:07:46;;;;;;;2.60;1.45;;;;;;;19.89;71.02;100830.50;4957980;28;20058;-76
2023/06/07 03:10:31;;;;;;;2.10;1.65;;;;;;;19.73;70.95;100831.84;4956178;28;20426;-76
2023/06/07 03:13:16;;;;;;;2.13;1.58;;;;;;;19.70;70.16;100824.31;4975306;28;20046;-76
2023/06/07 03:16:02;;;;;;;4.53;2.00;;;;;;;19.63;70.49;100825.03;4971642;28;20062;-76
2023/06/07 03:18:52;;;;;;;3.40;2.17;;;;;;;19.37;71.24;100825.81;4974150;28;20054;-76
2023/06/07 03:21:40;;;;;;;3.65;2.15;;;;;;;19.22;72.87;100824.00;4960495;28;20050;-77
2023/06/07 03:24:28;;;;;;;9.73;2.67;;;;;;;19.25;73.17;100823.25;4978483;28;20414;-75
2023/06/07 03:27:13;;;;;;;4.40;2.22;;;;;;;19.24;73.67;100824.44;4962539;28;20437;-77
2023/06/07 03:29:59;;;;;;;4.22;2.35;;;;;;;19.20;73.33;100827.13;4978860;28;20062;-77
2023/06/07 03:32:45;;;;;;;3.28;2.15;;;;;;;19.09;74.28;100831.69;4975332;28;20057;-76
2023/06/07 03:35:31;;;;;;;3.60;2.25;;;;;;;19.20;73.86;100837.34;4960189;28;20050;-77
2023/06/07 03:38:16;;;;;;;5.63;2.30;;;;;;;19.17;73.90;100838.09;4971555;28;20065;-77
2023/06/07 03:41:02;;;;;;;4.07;2.65;;;;;;;18.99;74.99;100839.78;4955831;28;20069;-77
2023/06/07 03:43:53;;;;;;;7.78;1.98;;;;;;;18.91;75.75;100838.06;4970082;28;20051;-77
2023/06/07 03:46:38;;;;;;;7.35;2.53;;;;;;;18.93;75.58;100842.06;4972550;28;20049;-76
2023/06/07 03:49:23;;;;;;;8.57;3.50;;;;;;;18.94;75.79;100834.59;4974433;28;20054;-75
2023/06/07 03:52:09;;;;;;;6.55;3.55;;;;;;;19.06;75.47;100829.66;4974354;28;20050;-75
2023/06/07 03:54:54;;;;;;;8.55;2.67;;;;;;;19.05;75.18;100836.34;4978352;28;20058;-76
2023/06/07 03:57:39;;;;;;;7.82;3.00;;;;;;;19.00;75.74;100835.84;4976296;28;20049;-75
2023/06/07 04:00:27;;;;;;;3.00;1.90;;;;;;;19.05;75.23;100832.78;4974843;28;20057;-75
2023/06/07 04:03:13;;;;;;;2.25;1.77;;;;;;;19.23;75.20;100828.34;4978095;28;20046;-76
2023/06/07 04:05:58;;;;;;;5.97;2.35;;;;;;;19.20;75.72;100837.34;4962949;28;20054;-76
2023/06/07 04:08:43;;;;;;;;;;;;;;;19.20;75.50;100834.59;4974577;28;20054;-76
2023/06/07 04:11:28;;;;;;;3.65;2.10;;;;;;;19.20;75.42;100840.09;4973927;28;19914;-76
2023/06/07 04:14:13;;;;;;;4.22;1.92;;;;;;;19.23;75.24;100836.63;4974304;28;20101;-76
2023/06/07 04:16:58;;;;;;;4.63;2.55;;;;;;;19.20;75.06;100842.88;4974130;28;20414;-77
2023/06/07 04:19:44;;;;;;;6.90;2.45;;;;;;;19.22;76.05;100851.56;4964746;28;20050;-75
2023/06/07 04:22:30;;;;;;;4.15;2.05;;;;;;;19.30;75.33;100845.00;4963013;28;20045;-75
2023/06/07 04:25:16;;;;;;;5.90;2.08;;;;;;;19.23;75.70;100845.69;4960960;28;20058;-76
2023/06/07 04:28:02;;;;;;;7.53;2.35;;;;;;;19.34;75.55;100848.63;4977468;28;20046;-78
2023/06/07 04:30:49;;;;;;;5.82;2.30;;;;;;;19.31;75.35;100840.28;4977456;28;20061;-77
2023/06/07 04:33:35;;;;;;;2.35;1.80;;;;;;;19.35;74.87;100849.41;4975202;28;20053;-76
2023/06/07 04:36:20;;;;;;;5.57;2.95;;;;;;;19.24;75.34;100843.75;4980321;28;20046;-77
2023/06/07 04:39:06;;;;;;;6.03;2.65;;;;;;;19.20;75.82;100840.09;4975765;28;20058;-77
2023/06/07 04:41:52;;;;;;;5.85;2.45;;;;;;;19.27;75.86;100837.47;4968268;28;20043;-77
2023/06/07 04:44:39;;;;;;;4.82;1.83;;;;;;;19.34;76.40;100847.81;4956224;28;20516;-77
2023/06/07 04:47:32;;;;;;;8.02;2.40;;;;;;;19.34;76.21;100845.06;4967654;28;20043;-77
2023/06/07 04:50:20;;;;;;;6.38;2.10;;;;;;;19.30;76.49;100845.00;4965432;28;20062;-77
2023/06/07 04:53:05;;;;;;;5.85;1.55;;;;;;;19.46;76.81;100851.19;4969059;28;20058;-77
2023/06/07 04:55:52;;;;;;;2.28;1.00;;;;;;;19.88;74.23;100858.47;4969183;28;20060;-77
2023/06/07 04:58:40;;;;;;;3.20;1.27;;;;;;;20.30;71.95;100856.22;4967104;28;20041;-77
2023/06/07 05:01:25;;;;;;;1.85;1.20;;;;;;;20.54;71.12;100859.66;4963637;28;20070;-76
2023/06/07 05:04:10;;;;;;;3.00;1.67;;;;;;;20.79;70.02;100855.97;4966398;28;20046;-76
2023/06/07 05:07:06;;;;;;;;;;;;;;;20.86;69.51;100855.25;4961131;28;20066;-77
2023/06/07 05:09:54;;;;;;;5.38;1.95;;;;;;;20.88;69.52;100850.91;4977019;28;19914;-77
2023/06/07 05:12:41;;;;;;;2.95;1.38;;;;;;;20.86;69.07;100856.03;4962174;28;20046;-76
2023/06/07 05:15:30;;;;;;;8.57;1.90;;;;;;;20.85;70.04;100859.19;4973026;28;20057;-76
2023/06/07 05:18:19;;;;;;;4.72;1.75;;;;;;;20.88;69.52;100861.16;4975117;28;20517;-76
2023/06/07 05:21:04;;;;;;;4.63;1.95;;;;;;;20.86;70.66;100858.00;4960557;28;20054;-76
2023/06/07 05:23:50;;;;;;;10.02;2.15;;;;;;;20.93;70.04;100856.09;4968340;28;20413;-76
2023/06/07 05:26:35;;;;;;;13.35;1.83;;;;;;;20.97;70.44;100866.41;4970001;28;20070;-77
2023/06/07 05:29:21;;;;;;;6.65;1.58;;;;;;;21.00;70.49;100866.44;4939744;28;20058;-77
2023/06/07 05:32:07;;;;;;;5.95;2.88;;;;;;;20.98;70.88;100856.94;4973063;28;20045;-76
2023/06/07 05:34:52;;;;;;;8.88;3.03;;;;;;;20.85;71.87;100864.72;4976248;28;20522;-76
2023/06/07 05:37:38;;;;;;;5.68;2.55;;;;;;;20.76;73.12;100869.75;4974078;28;20053;-76
2023/06/07 05:40:25;;;;;;;9.25;2.58;;;;;;;20.73;73.28;100867.75;4972833;28;20058;-76
2023/06/07 05:43:10;;;;;;;5.82;1.88;;;;;;;20.84;71.24;100863.13;4963079;28;20069;-76
2023/06/07 05:45:56;;;;;;;7.38;2.08;;;;;;;20.88;70.93;100866.69;4961443;28;20059;-76
2023/06/07 05:48:41;;;;;;;5.15;2.13;;;;;;;20.80;72.95;100868.63;4970640;28;20049;-77
2023/06/07 05:51:30;;;;;;;4.80;2.08;;;;;;;20.99;70.70;100873.13;4977226;28;20054;-77
2023/06/07 05:54:14;;;;;;;4.55;2.33;;;;;;;21.08;70.34;100873.59;4962659;28;20050;-76
2023/06/07 05:56:59;;;;;;;5.03;2.47;;;;;;;21.09;70.43;100880.72;4970785;28;20421;-75
2023/06/07 05:59:44;;;;;;;6.75;1.80;;;;;;;21.15;69.67;100873.69;4971073;28;20050;-77
2023/06/07 06:02:29;;;;;;;8.02;2.95;;;;;;;21.26;69.75;100879.31;4971075;28;20119;-76
2023/06/07 06:05:15;;;;;;;21.38;2.70;;;;;;;21.28;69.59;100876.97;4972653;28;20045;-77
2023/06/07 06:08:00;;;;;;;23.20;3.15;;;;;;;21.34;69.40;100870.69;4971443;28;20053;-76
2023/06/07 06:10:45;;;;;;;15.82;2.70;;;;;;;21.38;69.50;100881.78;4974532;28;20046;-76
2023/06/07 06:13:31;;;;;;;5.28;3.67;;;;;;;21.29;71.26;100876.56;4972969;28;20047;-77
2023/06/07 06:16:16;;;;;;;7.95;4.40;;;;;;;21.30;71.13;100880.94;4977322;28;20545;-78
2023/06/07 06:19:00;;;;;;;17.77;3.22;;;;;;;21.43;69.55;100880.63;4970403;28;20046;-78
2023/06/07 06:21:45;;;;;;;29.75;4.18;;;;;;;21.50;69.58;100888.97;4953391;29;20426;-78
2023/06/07 06:24:30;;;;;;;46.47;5.63;;;;;;;21.55;69.49;100886.63;4952962;29;20046;-77
2023/06/07 06:27:15;;;;;;;18.45;4.70;;;;;;;21.57;69.45;100884.28;4953407;29;20055;-78
2023/06/07 06:29:59;;;;;;;18.17;6.40;;;;;;;21.61;69.22;100885.09;4953848;29;20054;-77
2023/06/07 06:32:44;;;;;;;24.52;4.40;;;;;;;21.67;69.11;100877.22;4953276;29;20054;-78
2023/06/07 06:35:32;;;;;;;13.10;4.07;;;;;;;21.73;68.57;100884.00;4942714;29;20422;-77
2023/06/07 06:38:17;;;;;;;25.30;4.40;;;;;;;21.98;68.26;100884.16;4953919;28;20120;-78
2023/06/07 06:41:01;;;;;;;7.22;4.10;;;;;;;22.54;66.30;100875.25;4977277;28;20062;-76
2023/06/07 06:43:46;;;;;;;6.45;3.28;;;;;;;22.68;64.93;100880.81;4980068;28;20552;-77
2023/06/07 06:46:31;;;;;;;11.68;3.28;;;;;;;22.67;66.05;100889.53;4982200;28;20058;-78
2023/06/07 06:49:16;;;;;;;5.97;2.75;;;;;;;22.63;65.12;100889.53;4979399;28;20053;-78
2023/06/07 06:52:00;;;;;;;7.50;3.20;;;;;;;22.74;65.54;100890.38;4978913;28;20053;-77
2023/06/07 06:54:45;;;;;;;3.90;2.78;;;;;;;22.86;64.26;100886.41;4982095;28;20046;-77
2023/06/07 06:57:30;;;;;;;4.35;2.90;;;;;;;22.85;64.41;100884.84;4978576;28;20050;-77
2023/06/07 07:00:16;;;;;;;4.60;2.50;;;;;;;23.21;62.96;100893.97;4976221;28;20062;-78
2023/06/07 07:03:02;;;;;;;5.65;2.53;;;;;;;23.76;59.97;100886.00;4969888;28;20434;-78
2023/06/07 07:05:46;;;;;;;7.80;3.63;;;;;;;23.14;62.40;100893.97;4967599;28;20054;-77
2023/06/07 07:08:32;;;;;;;;;;;;;;;23.15;62.18;100892.78;4955306;28;20046;-78
2023/06/07 07:11:16;;;;;;;;;;;;;;;23.36;61.34;100890.00;4974077;28;20305;-77
2023/06/07 07:14:01;;;;;;;6.23;2.93;;;;;;;23.27;61.62;100895.16;4974610;28;19918;-77
2023/06/07 07:16:46;;;;;;;10.00;3.60;;;;;;;23.37;61.77;100897.91;4975133;28;20062;-78
2023/06/07 07:19:31;;;;;;;3.10;2.63;;;;;;;23.14;63.21;100905.88;4965389;28;20037;-78
2023/06/07 07:22:15;;;;;;;;;;;;;;;22.96;63.32;100891.97;4969342;28;20532;-78
2023/06/07 07:25:00;;;;;;;4.40;2.80;;;;;;;22.99;63.24;100890.41;4976531;28;19922;-77
2023/06/07 07:27:45;;;;;;;4.53;2.45;;;;;;;23.30;61.89;100895.16;4973335;28;20414;-77
2023/06/07 07:30:30;;;;;;;5.55;3.58;;;;;;;23.13;62.23;100890.41;4971103;28;20512;-77
2023/06/07 07:33:15;;;;;;;5.35;2.65;;;;;;;23.40;61.35;100893.56;4963889;28;20517;-78
2023/06/07 07:36:03;;;;;;;4.25;3.33;;;;;;;23.27;61.20;100889.59;4980285;28;20065;-78
2023/06/07 07:38:48;;;;;;;6.55;3.55;;;;;;;23.22;62.76;100885.25;4975529;28;20512;-77
2023/06/07 07:41:34;;;;;;;6.97;3.40;;;;;;;23.28;61.35;100891.97;4971744;28;20053;-77
2023/06/07 07:44:19;;;;;;;4.47;3.42;;;;;;;23.16;61.15;100889.59;4974814;28;20050;-77
2023/06/07 07:47:07;;;;;;;8.63;2.88;;;;;;;23.74;60.46;100891.16;4974336;28;20077;-76
2023/06/07 07:49:52;;;;;;;11.00;3.90;;;;;;;23.63;60.68;100890.38;5043208;22;20553;-77
2023/06/07 07:52:36;;;;;;;;;;;;;;;23.83;60.23;100889.53;5003426;28;20052;-81
2023/06/07 07:55:22;;;;;;;5.20;3.05;;;;;;;23.60;61.08;100889.22;5010829;28;19917;-80
2023/06/07 07:58:07;;;;;;;5.90;3.72;;;;;;;22.94;61.49;100880.50;5020494;28;20049;-81
2023/06/07 08:00:52;;;;;;;4.32;3.45;;;;;;;23.78;60.24;100886.38;5024111;28;20053;-80
2023/06/07 08:03:37;;;;;;;13.80;4.25;;;;;;;24.05;59.22;100889.47;5022146;28;20068;-80
2023/06/07 08:06:22;;;;;;;9.25;3.67;;;;;;;23.99;59.37;100888.31;5010837;28;20168;-81
2023/06/07 08:09:07;;;;;;;3.50;2.63;;;;;;;23.93;58.68;100892.69;5020639;28;20049;-81
2023/06/07 08:11:51;;;;;;;3.25;2.42;;;;;;;23.85;59.25;100889.94;5005551;28;20053;-81
2023/06/07 08:14:36;;;;;;;4.25;2.70;;;;;;;23.85;59.71;100897.47;5018462;28;20069;-78
2023/06/07 08:17:21;;;;;;;4.93;2.95;;;;;;;24.13;58.82;100889.03;5004484;28;20053;-80
2023/06/07 08:20:08;;;;;;;;;;;;;;;23.94;58.69;100889.50;5005150;28;20057;-80
2023/06/07 08:22:53;;;;;;;4.50;2.35;;;;;;;23.66;59.57;100893.19;5018993;28;19913;-81
2023/06/07 08:25:38;;;;;;;6.72;3.40;;;;;;;23.81;58.68;100886.41;5017480;28;20409;-81
2023/06/07 08:28:22;;;;;;;169.38;33.60;;;;;;;24.28;57.76;100887.03;5020677;28;20045;-81
2023/06/07 08:31:10;;;;;;;119.53;28.08;;;;;;;24.86;56.13;100888.28;5025087;28;20034;-81
2023/06/07 08:33:54;;;;;;;77.00;18.55;;;;;;;23.98;58.16;100895.06;5022174;28;20042;-78
2023/06/07 08:36:42;;;;;;;34.55;8.60;;;;;;;23.34;60.73;100895.16;5011880;28;20533;-77
2023/06/07 08:39:27;;;;;;;24.50;6.35;;;;;;;23.07;61.49;100889.19;5013047;28;20100;-78
2023/06/07 08:42:12;;;;;;;22.50;5.15;;;;;;;22.82;62.45;100886.41;5012991;28;20053;-78
2023/06/07 08:44:56;;;;;;;10.85;3.65;;;;;;;22.72;62.54;100894.72;5018060;28;20060;-78
2023/06/07 08:47:43;;;;;;;7.35;4.07;;;;;;;22.69;62.54;100892.72;5012677;28;20097;-77
2023/06/07 08:50:28;;;;;;;18.50;4.97;;;;;;;22.51;63.28;100896.22;5013003;28;20053;-77
2023/06/07 08:53:14;;;;;;;24.77;5.47;;;;;;;22.48;63.61;100899.78;5012696;28;20057;-77
2023/06/07 08:56:01;;;;;;;16.45;5.55;;;;;;;22.53;63.42;100890.28;5012925;28;20053;-78
2023/06/07 08:58:48;;;;;;;6.28;2.95;;;;;;;22.43;63.36;100885.50;5012525;28;20501;-78
2023/06/07 09:01:37;;;;;;;8.63;4.05;;;;;;;22.49;63.20;100895.84;5010982;28;20096;-77
2023/06/07 09:04:25;;;;;;;5.90;4.05;;;;;;;22.43;64.13;100886.31;5018332;28;20044;-77
2023/06/07 09:07:10;;;;;;;6.75;3.38;;;;;;;22.41;63.45;100894.22;5011345;28;20045;-78
2023/06/07 09:09:55;;;;;;;9.88;2.90;;;;;;;22.39;63.46;100893.03;5012569;28;20425;-77
2023/06/07 09:12:40;;;;;;;9.00;4.95;;;;;;;22.48;63.65;100890.66;5012785;28;20041;-77
2023/06/07 09:15:24;;;;;;;5.28;3.83;;;;;;;22.43;63.47;100891.84;5011456;28;20053;-77
2023/06/07 09:18:10;;;;;;;;;;;;;;;22.58;64.64;100882.38;5012631;28;20060;-78
2023/06/07 09:20:54;;;;;;;4.45;2.15;;;;;;;22.44;63.17;100882.34;5012552;28;19913;-78
2023/06/07 09:23:40;;;;;;;7.20;4.32;;;;;;;22.48;64.11;100883.16;5011319;28;20068;-77
2023/06/07 09:26:36;;;;;;;5.65;3.83;;;;;;;22.60;64.76;100879.22;5002701;28;20048;-77
2023/06/07 09:29:21;;;;;;;6.00;4.20;;;;;;;22.76;62.92;100876.88;5013699;28;20064;-77
2023/06/07 09:32:20;;;;;;;6.20;3.47;;;;;;;22.81;62.79;100870.94;5011303;28;20125;-77
2023/06/07 09:35:13;;;;;;;7.40;3.63;;;;;;;22.92;62.65;100869.00;5011362;28;20050;-77
2023/06/07 09:37:59;;;;;;;7.18;4.40;;;;;;;23.26;60.47;100871.38;5012000;28;20511;-77
2023/06/07 09:40:51;;;;;;;6.63;3.85;;;;;;;23.40;58.95;100860.25;4986087;28;20046;-77
2023/06/07 09:43:47;;;;;;;4.53;3.38;;;;;;;23.47;59.68;100868.59;4994886;28;20064;-77
2023/06/07 09:46:36;;;;;;;8.20;2.33;;;;;;;23.26;59.80;100865.84;4972946;28;20050;-77
2023/06/07 09:49:34;;;;;;;4.60;3.08;;;;;;;23.01;60.86;100863.84;4990451;28;20052;-77
2023/06/07 09:52:19;;;;;;;4.13;2.80;;;;;;;22.97;61.35;100856.72;5023694;28;20044;-77
2023/06/07 09:55:23;;;;;;;6.40;3.45;;;;;;;23.06;62.54;100867.44;4999578;28;20054;-77
2023/06/07 09:58:19;;;;;;;4.93;4.28;;;;;;;23.39;61.03;100864.22;4980928;28;20114;-77
2023/06/07 10:01:05;;;;;;;5.43;3.40;;;;;;;23.06;61.79;100859.09;4989977;28;20096;-77
2023/06/07 10:03:50;;;;;;;8.23;4.25;;;;;;;23.22;60.68;100870.56;4993816;28;20045;-77
2023/06/07 10:06:43;;;;;;;3.55;2.65;;;;;;;23.44;60.15;100872.16;4997844;28;20129;-77
2023/06/07 10:09:29;;;;;;;7.60;2.95;;;;;;;23.36;59.67;100859.47;5006647;28;20057;-78
2023/06/07 10:12:16;;;;;;;7.38;4.82;;;;;;;23.80;57.84;100865.34;5001206;28;20065;-77
2023/06/07 10:15:10;;;;;;;5.53;3.30;;;;;;;23.71;58.46;100859.44;5008951;28;20053;-77
2023/06/07 10:18:00;;;;;;;2.95;2.05;;;;;;;23.16;59.84;100864.63;5001953;28;20049;-77
2023/06/07 10:21:25;;;;;;;7.20;2.08;;;;;;;22.95;60.79;100853.56;4999668;28;20049;-77
2023/06/07 10:24:15;;;;;;;3.35;2.90;;;;;;;22.96;60.70;100855.91;4982123;28;20070;-78
2023/06/07 10:27:08;;;;;;;4.93;2.22;;;;;;;22.76;61.57;100849.16;4976272;28;20046;-76
2023/06/07 10:30:11;;;;;;;2.45;2.03;;;;;;;22.86;61.33;100842.81;4976778;28;20054;-76
2023/06/07 10:32:58;;;;;;;4.57;2.10;;;;;;;22.81;61.33;100845.19;4993501;28;20049;-77
2023/06/07 10:35:44;;;;;;;5.60;3.97;;;;;;;22.87;61.43;100843.63;4997127;28;20057;-76
2023/06/07 10:38:30;;;;;;;4.30;2.63;;;;;;;22.88;61.59;100834.91;4994641;28;20098;-77
2023/06/07 10:41:15;;;;;;;4.28;3.35;;;;;;;22.92;61.51;100830.16;4995929;28;20053;-76
2023/06/07 10:44:03;;;;;;;7.05;4.68;;;;;;;23.32;60.23;100826.16;4994913;28;20061;-77
2023/06/07 10:46:47;;;;;;;9.35;4.47;;;;;;;23.47;59.88;100826.94;5000957;28;20524;-77
2023/06/07 10:49:36;;;;;;;3.35;2.08;;;;;;;23.06;60.34;100823.03;4982615;28;20417;-77
2023/06/07 10:52:23;;;;;;;3.17;2.65;;;;;;;23.20;60.46;100829.38;4987355;28;20053;-77
2023/06/07 10:55:24;;;;;;;6.45;3.95;;;;;;;23.23;60.26;100828.56;4996055;28;20049;-76
2023/06/07 10:58:32;;;;;;;7.53;5.35;;;;;;;23.57;59.50;100830.94;4994945;28;20053;-76
2023/06/07 11:01:23;;;;;;;6.72;5.03;;;;;;;23.60;59.49;100830.91;4985843;28;20607;-77
2023/06/07 11:04:31;;;;;;;6.40;5.47;;;;;;;24.27;56.18;100827.88;5004783;28;20500;-77
2023/06/07 11:07:35;;;;;;;5.25;4.18;;;;;;;24.01;56.89;100822.03;5009697;28;20049;-77
2023/06/07 11:10:22;;;;;;;4.60;2.90;;;;;;;23.36;58.85;100826.19;5013446;28;20401;-77
2023/06/07 11:13:07;;;;;;;3.85;3.20;;;;;;;23.12;60.88;100826.97;5006833;28;20044;-76
2023/06/07 11:15:52;;;;;;;7.35;3.22;;;;;;;23.15;60.31;100815.91;5001027;28;20053;-78
2023/06/07 11:19:00;;;;;;;11.52;4.05;;;;;;;23.02;60.96;100815.50;5008008;28;20053;-77
2023/06/07 11:22:06;;;;;;;6.40;3.55;;;;;;;23.22;61.66;100812.28;5014074;28;20053;-78
2023/06/07 11:24:51;;;;;;;10.23;4.75;;;;;;;23.56;59.75;100807.13;5001622;28;20061;-79
2023/06/07 11:27:36;;;;;;;4.82;2.72;;;;;;;23.24;60.87;100812.72;5005905;28;20069;-78
2023/06/07 11:30:22;;;;;;;9.27;3.50;;;;;;;22.95;60.87;100801.66;4996298;28;20048;-79
2023/06/07 11:33:06;;;;;;;10.80;2.58;;;;;;;22.98;61.09;100803.63;5010965;28;20412;-78
2023/06/07 11:35:52;;;;;;;5.45;4.15;;;;;;;23.00;60.70;100806.00;5010701;28;20161;-78
2023/06/07 11:38:38;;;;;;;5.57;3.75;;;;;;;23.43;57.95;100801.97;4994572;28;20045;-79
2023/06/07 11:41:23;;;;;;;4.13;2.30;;;;;;;23.17;60.14;100802.41;5015746;28;20413;-78
2023/06/07 11:44:09;;;;;;;4.55;3.28;;;;;;;23.33;58.84;100799.19;5020072;28;20070;-78
2023/06/07 11:46:54;;;;;;;3.28;2.35;;;;;;;23.16;60.09;100795.25;5016873;28;20053;-81
2023/06/07 11:49:40;;;;;;;3.95;3.10;;;;;;;23.34;59.12;100781.38;5016367;28;20057;-79
2023/06/07 11:52:25;;;;;;;4.82;2.70;;;;;;;23.05;60.45;100788.16;5015250;28;20049;-78
2023/06/07 11:55:10;;;;;;;3.63;2.22;;;;;;;22.98;60.47;100792.53;5002983;28;20139;-78
2023/06/07 11:57:55;;;;;;;3.17;2.28;;;;;;;22.97;60.39;100779.03;5002159;28;20053;-78
2023/06/07 12:00:43;;;;;;;6.35;4.15;;;;;;;23.15;60.69;100788.16;5015500;28;20049;-78
2023/06/07 12:03:27;;;;;;;5.32;2.67;;;;;;;22.88;60.98;100786.97;4998624;28;20045;-78
2023/06/07 12:06:13;;;;;;;7.70;5.05;;;;;;;23.31;59.29;100780.19;5006722;28;20044;-78
2023/06/07 12:08:57;;;;;;;6.40;2.95;;;;;;;23.16;59.82;100783.41;5002721;28;20531;-78
2023/06/07 12:11:42;;;;;;;3.70;2.30;;;;;;;22.96;60.33;100774.69;5002455;28;20121;-78
2023/06/07 12:14:29;;;;;;;5.93;4.03;;;;;;;23.17;59.15;100777.44;4991967;28;20053;-79
2023/06/07 12:17:14;;;;;;;6.95;3.40;;;;;;;23.34;59.50;100775.81;5023038;28;20425;-79
2023/06/07 12:20:25;;;;;;;13.40;4.80;;;;;;;23.68;57.40;100765.81;5006856;28;20519;-78
2023/06/07 12:23:11;;;;;;;7.07;5.45;;;;;;;23.72;57.18;100758.25;5006893;28;20122;-79
2023/06/07 12:26:15;;;;;;;7.82;5.95;;;;;;;24.38;54.73;100760.31;4996597;28;20060;-79
2023/06/07 12:29:01;;;;;;;5.70;4.78;;;;;;;24.65;53.73;100759.28;5007346;28;20056;-80
2023/06/07 12:31:48;;;;;;;8.98;4.85;;;;;;;24.26;55.79;100756.81;5000834;28;20523;-78
2023/06/07 12:34:33;;;;;;;6.13;4.85;;;;;;;24.93;54.17;100754.72;4998457;28;20045;-78
2023/06/07 12:37:18;;;;;;;13.13;4.28;;;;;;;24.47;54.15;100755.88;5008771;28;20044;-78
2023/06/07 12:40:07;;;;;;;6.53;3.85;;;;;;;24.54;53.76;100747.44;5001601;28;20425;-79
2023/06/07 12:42:53;;;;;;;3.08;2.60;;;;;;;24.15;55.42;100733.81;5001620;28;20049;-78
2023/06/07 12:45:38;;;;;;;4.65;3.53;;;;;;;24.03;55.71;100747.38;5003631;28;20512;-79
2023/06/07 12:48:23;;;;;;;5.32;3.00;;;;;;;23.65;57.06;100744.41;5002544;28;20057;-79
2023/06/07 12:51:08;;;;;;;;;;;;;;;24.06;55.90;100741.03;5016234;28;20045;-79
2023/06/07 12:53:53;;;;;;;6.60;2.53;;;;;;;23.58;57.83;100735.31;5012697;28;20376;-78
2023/06/07 12:56:38;;;;;;;2.80;2.50;;;;;;;23.49;58.16;100732.97;5014430;28;20060;-78
2023/06/07 12:59:22;;;;;;;5.50;2.08;;;;;;;23.30;58.56;100734.19;5016270;28;20405;-79